sensor_id;sensor_type;location;lat;lon;timestamp;temperature;humidity
52034;DHT22;38045;52.988;6.536;2023-12-20T00:00:57;5.40;80.10
52034;DHT22;38045;52.988;6.536;2023-12-20T00:03:23;5.50;80.20
52034;DHT22;38045;52.988;6.536;2023-12-20T00:05:49;5.50;80.20
52034;DHT22;38045;52.988;6.536;2023-12-20T00:08:16;5.50;80.20
52034;DHT22;38045;52.988;6.536;2023-12-20T00:10:42;5.50;80.00
52034;DHT22;38045;52.988;6.536;2023-12-20T00:13:08;5.50;79.70
52034;DHT22;38045;52.988;6.536;2023-12-20T00:15:34;5.50;79.60
52034;DHT22;38045;52.988;6.536;2023-12-20T00:18:00;5.50;79.80
52034;DHT22;38045;52.988;6.536;2023-12-20T00:20:26;5.50;79.60
52034;DHT22;38045;52.988;6.536;2023-12-20T00:22:52;5.60;79.50
52034;DHT22;38045;52.988;6.536;2023-12-20T00:25:18;5.60;79.60
52034;DHT22;38045;52.988;6.536;2023-12-20T00:27:43;5.60;79.60
52034;DHT22;38045;52.988;6.536;2023-12-20T00:30:10;5.60;79.40
52034;DHT22;38045;52.988;6.536;2023-12-20T00:32:36;5.50;79.40
52034;DHT22;38045;52.988;6.536;2023-12-20T00:35:02;5.50;79.40
52034;DHT22;38045;52.988;6.536;2023-12-20T00:37:27;5.50;79.40
52034;DHT22;38045;52.988;6.536;2023-12-20T00:39:53;5.50;79.40
52034;DHT22;38045;52.988;6.536;2023-12-20T00:42:18;5.50;79.40
52034;DHT22;38045;52.988;6.536;2023-12-20T00:44:44;5.50;79.40
52034;DHT22;38045;52.988;6.536;2023-12-20T00:47:10;5.50;79.40
52034;DHT22;38045;52.988;6.536;2023-12-20T00:49:35;5.50;79.40
52034;DHT22;38045;52.988;6.536;2023-12-20T00:52:01;5.40;79.40
52034;DHT22;38045;52.988;6.536;2023-12-20T00:54:26;5.40;79.40
52034;DHT22;38045;52.988;6.536;2023-12-20T00:56:52;5.50;79.40
52034;DHT22;38045;52.988;6.536;2023-12-20T00:59:19;5.40;79.30
52034;DHT22;38045;52.988;6.536;2023-12-20T01:01:45;5.40;79.30
52034;DHT22;38045;52.988;6.536;2023-12-20T01:04:10;5.40;79.30
52034;DHT22;38045;52.988;6.536;2023-12-20T01:06:36;5.30;79.40
52034;DHT22;38045;52.988;6.536;2023-12-20T01:09:02;5.30;79.40
52034;DHT22;38045;52.988;6.536;2023-12-20T01:11:28;5.30;79.40
52034;DHT22;38045;52.988;6.536;2023-12-20T01:13:53;5.40;79.30
52034;DHT22;38045;52.988;6.536;2023-12-20T01:16:19;5.40;79.30
52034;DHT22;38045;52.988;6.536;2023-12-20T01:18:45;5.50;79.10
52034;DHT22;38045;52.988;6.536;2023-12-20T01:21:10;5.40;79.10
52034;DHT22;38045;52.988;6.536;2023-12-20T01:23:36;5.40;79.20
52034;DHT22;38045;52.988;6.536;2023-12-20T01:26:01;5.40;79.30
52034;DHT22;38045;52.988;6.536;2023-12-20T01:28:28;5.30;79.20
52034;DHT22;38045;52.988;6.536;2023-12-20T01:30:53;5.30;79.10
52034;DHT22;38045;52.988;6.536;2023-12-20T01:33:19;5.30;79.20
52034;DHT22;38045;52.988;6.536;2023-12-20T01:35:44;5.30;79.00
52034;DHT22;38045;52.988;6.536;2023-12-20T01:38:10;5.40;79.00
52034;DHT22;38045;52.988;6.536;2023-12-20T01:40:36;5.40;78.90
52034;DHT22;38045;52.988;6.536;2023-12-20T01:43:07;5.40;78.90
52034;DHT22;38045;52.988;6.536;2023-12-20T01:45:34;5.40;78.80
52034;DHT22;38045;52.988;6.536;2023-12-20T01:48:00;5.40;78.70
52034;DHT22;38045;52.988;6.536;2023-12-20T01:50:28;5.40;78.80
52034;DHT22;38045;52.988;6.536;2023-12-20T01:52:56;5.40;78.80
52034;DHT22;38045;52.988;6.536;2023-12-20T01:55:24;5.50;78.90
52034;DHT22;38045;52.988;6.536;2023-12-20T01:57:50;5.40;78.90
52034;DHT22;38045;52.988;6.536;2023-12-20T02:00:17;5.40;79.00
52034;DHT22;38045;52.988;6.536;2023-12-20T02:02:44;5.50;78.70
52034;DHT22;38045;52.988;6.536;2023-12-20T02:05:11;5.50;78.70
52034;DHT22;38045;52.988;6.536;2023-12-20T02:07:37;5.50;78.80
52034;DHT22;38045;52.988;6.536;2023-12-20T02:10:03;5.50;78.80
52034;DHT22;38045;52.988;6.536;2023-12-20T02:12:31;5.50;78.70
52034;DHT22;38045;52.988;6.536;2023-12-20T02:14:57;5.50;78.90
52034;DHT22;38045;52.988;6.536;2023-12-20T02:17:23;5.40;78.70
52034;DHT22;38045;52.988;6.536;2023-12-20T02:19:49;5.50;78.70
52034;DHT22;38045;52.988;6.536;2023-12-20T02:22:15;5.50;78.70
52034;DHT22;38045;52.988;6.536;2023-12-20T02:24:41;5.50;78.70
52034;DHT22;38045;52.988;6.536;2023-12-20T02:27:07;5.50;78.70
52034;DHT22;38045;52.988;6.536;2023-12-20T02:29:36;5.50;78.70
52034;DHT22;38045;52.988;6.536;2023-12-20T02:32:02;5.50;78.70
52034;DHT22;38045;52.988;6.536;2023-12-20T02:34:28;5.50;78.70
52034;DHT22;38045;52.988;6.536;2023-12-20T02:36:54;5.50;78.60
52034;DHT22;38045;52.988;6.536;2023-12-20T02:39:20;5.60;78.40
52034;DHT22;38045;52.988;6.536;2023-12-20T02:41:46;5.70;78.10
52034;DHT22;38045;52.988;6.536;2023-12-20T02:44:12;5.80;78.00
52034;DHT22;38045;52.988;6.536;2023-12-20T02:46:37;5.90;78.00
52034;DHT22;38045;52.988;6.536;2023-12-20T02:49:03;5.80;77.90
52034;DHT22;38045;52.988;6.536;2023-12-20T02:51:28;5.90;77.50
52034;DHT22;38045;52.988;6.536;2023-12-20T02:53:54;5.90;77.60
52034;DHT22;38045;52.988;6.536;2023-12-20T02:56:20;5.90;77.70
52034;DHT22;38045;52.988;6.536;2023-12-20T02:58:45;5.90;77.70
52034;DHT22;38045;52.988;6.536;2023-12-20T03:01:11;5.90;77.70
52034;DHT22;38045;52.988;6.536;2023-12-20T03:03:36;5.90;77.70
52034;DHT22;38045;52.988;6.536;2023-12-20T03:06:02;5.90;77.70
52034;DHT22;38045;52.988;6.536;2023-12-20T03:08:27;5.90;77.70
52034;DHT22;38045;52.988;6.536;2023-12-20T03:10:53;5.90;77.90
52034;DHT22;38045;52.988;6.536;2023-12-20T03:13:19;5.90;77.80
52034;DHT22;38045;52.988;6.536;2023-12-20T03:15:45;5.90;77.90
52034;DHT22;38045;52.988;6.536;2023-12-20T03:18:11;5.80;77.90
52034;DHT22;38045;52.988;6.536;2023-12-20T03:20:36;5.90;77.90
52034;DHT22;38045;52.988;6.536;2023-12-20T03:23:02;5.90;77.90
52034;DHT22;38045;52.988;6.536;2023-12-20T03:25:28;5.90;78.00
52034;DHT22;38045;52.988;6.536;2023-12-20T03:27:54;5.90;77.80
52034;DHT22;38045;52.988;6.536;2023-12-20T03:30:19;5.90;77.90
52034;DHT22;38045;52.988;6.536;2023-12-20T03:32:45;6.00;77.70
52034;DHT22;38045;52.988;6.536;2023-12-20T03:35:11;5.90;77.70
52034;DHT22;38045;52.988;6.536;2023-12-20T03:37:37;6.00;77.70
52034;DHT22;38045;52.988;6.536;2023-12-20T03:40:03;5.90;77.50
52034;DHT22;38045;52.988;6.536;2023-12-20T03:42:29;5.90;77.40
52034;DHT22;38045;52.988;6.536;2023-12-20T03:44:55;5.90;77.60
52034;DHT22;38045;52.988;6.536;2023-12-20T03:47:20;5.90;77.50
52034;DHT22;38045;52.988;6.536;2023-12-20T03:49:46;6.00;77.60
52034;DHT22;38045;52.988;6.536;2023-12-20T03:52:12;6.10;77.50
52034;DHT22;38045;52.988;6.536;2023-12-20T03:54:37;6.10;77.10
52034;DHT22;38045;52.988;6.536;2023-12-20T03:57:03;6.10;77.00
52034;DHT22;38045;52.988;6.536;2023-12-20T03:59:29;6.10;77.10
52034;DHT22;38045;52.988;6.536;2023-12-20T04:01:55;6.10;77.20
52034;DHT22;38045;52.988;6.536;2023-12-20T04:04:20;6.20;76.70
52034;DHT22;38045;52.988;6.536;2023-12-20T04:06:46;6.20;76.90
52034;DHT22;38045;52.988;6.536;2023-12-20T04:09:11;6.20;76.50
52034;DHT22;38045;52.988;6.536;2023-12-20T04:11:37;6.20;76.70
52034;DHT22;38045;52.988;6.536;2023-12-20T04:14:03;6.30;76.40
52034;DHT22;38045;52.988;6.536;2023-12-20T04:16:30;6.30;76.50
52034;DHT22;38045;52.988;6.536;2023-12-20T04:18:56;6.30;76.50
52034;DHT22;38045;52.988;6.536;2023-12-20T04:21:21;6.30;76.20
52034;DHT22;38045;52.988;6.536;2023-12-20T04:23:47;6.20;76.60
52034;DHT22;38045;52.988;6.536;2023-12-20T04:26:12;6.20;76.70
52034;DHT22;38045;52.988;6.536;2023-12-20T04:28:38;6.20;76.60
52034;DHT22;38045;52.988;6.536;2023-12-20T04:31:04;6.20;76.40
52034;DHT22;38045;52.988;6.536;2023-12-20T04:33:29;6.30;76.20
52034;DHT22;38045;52.988;6.536;2023-12-20T04:35:55;6.30;76.50
52034;DHT22;38045;52.988;6.536;2023-12-20T04:38:20;6.30;76.40
52034;DHT22;38045;52.988;6.536;2023-12-20T04:40:46;6.40;76.50
52034;DHT22;38045;52.988;6.536;2023-12-20T04:43:11;6.40;76.20
52034;DHT22;38045;52.988;6.536;2023-12-20T04:45:37;6.40;75.90
52034;DHT22;38045;52.988;6.536;2023-12-20T04:48:03;6.40;76.20
52034;DHT22;38045;52.988;6.536;2023-12-20T04:50:29;6.50;76.00
52034;DHT22;38045;52.988;6.536;2023-12-20T04:52:55;6.50;76.10
52034;DHT22;38045;52.988;6.536;2023-12-20T04:55:20;6.50;76.20
52034;DHT22;38045;52.988;6.536;2023-12-20T04:57:46;6.50;76.10
52034;DHT22;38045;52.988;6.536;2023-12-20T05:00:12;6.50;76.20
52034;DHT22;38045;52.988;6.536;2023-12-20T05:02:39;6.50;75.80
52034;DHT22;38045;52.988;6.536;2023-12-20T05:05:05;6.50;76.10
52034;DHT22;38045;52.988;6.536;2023-12-20T05:07:30;6.50;76.10
52034;DHT22;38045;52.988;6.536;2023-12-20T05:09:56;6.50;76.10
52034;DHT22;38045;52.988;6.536;2023-12-20T05:12:22;6.60;76.00
52034;DHT22;38045;52.988;6.536;2023-12-20T05:14:47;6.60;75.80
52034;DHT22;38045;52.988;6.536;2023-12-20T05:17:13;6.60;75.70
52034;DHT22;38045;52.988;6.536;2023-12-20T05:19:39;6.70;75.70
52034;DHT22;38045;52.988;6.536;2023-12-20T05:22:04;6.70;75.70
52034;DHT22;38045;52.988;6.536;2023-12-20T05:24:30;6.70;75.70
52034;DHT22;38045;52.988;6.536;2023-12-20T05:26:55;6.60;75.70
52034;DHT22;38045;52.988;6.536;2023-12-20T05:29:21;6.70;75.50
52034;DHT22;38045;52.988;6.536;2023-12-20T05:31:47;6.70;75.40
52034;DHT22;38045;52.988;6.536;2023-12-20T05:34:12;6.70;75.50
52034;DHT22;38045;52.988;6.536;2023-12-20T05:36:38;6.70;75.20
52034;DHT22;38045;52.988;6.536;2023-12-20T05:39:04;6.70;75.40
52034;DHT22;38045;52.988;6.536;2023-12-20T05:41:33;6.80;75.50
52034;DHT22;38045;52.988;6.536;2023-12-20T05:43:59;6.80;75.20
52034;DHT22;38045;52.988;6.536;2023-12-20T05:46:25;6.80;75.40
52034;DHT22;38045;52.988;6.536;2023-12-20T05:48:50;6.80;75.30
52034;DHT22;38045;52.988;6.536;2023-12-20T05:51:17;6.80;75.10
52034;DHT22;38045;52.988;6.536;2023-12-20T05:53:43;6.90;75.10
52034;DHT22;38045;52.988;6.536;2023-12-20T05:56:09;6.90;75.20
52034;DHT22;38045;52.988;6.536;2023-12-20T05:58:35;6.90;75.20
52034;DHT22;38045;52.988;6.536;2023-12-20T06:01:03;6.90;75.20
52034;DHT22;38045;52.988;6.536;2023-12-20T06:03:29;6.90;75.30
52034;DHT22;38045;52.988;6.536;2023-12-20T06:05:54;6.90;75.20
52034;DHT22;38045;52.988;6.536;2023-12-20T06:08:20;6.90;75.00
52034;DHT22;38045;52.988;6.536;2023-12-20T06:10:45;6.90;75.10
52034;DHT22;38045;52.988;6.536;2023-12-20T06:13:11;6.90;75.00
52034;DHT22;38045;52.988;6.536;2023-12-20T06:15:38;7.00;75.10
52034;DHT22;38045;52.988;6.536;2023-12-20T06:18:06;7.00;74.90
52034;DHT22;38045;52.988;6.536;2023-12-20T06:20:32;7.00;75.00
52034;DHT22;38045;52.988;6.536;2023-12-20T06:22:58;7.00;75.10
52034;DHT22;38045;52.988;6.536;2023-12-20T06:25:24;7.00;75.00
52034;DHT22;38045;52.988;6.536;2023-12-20T06:27:50;7.00;75.20
52034;DHT22;38045;52.988;6.536;2023-12-20T06:30:16;7.00;75.30
52034;DHT22;38045;52.988;6.536;2023-12-20T06:32:42;7.00;75.40
52034;DHT22;38045;52.988;6.536;2023-12-20T06:35:08;6.90;75.60
52034;DHT22;38045;52.988;6.536;2023-12-20T06:37:35;6.90;75.70
52034;DHT22;38045;52.988;6.536;2023-12-20T06:40:01;6.90;75.90
52034;DHT22;38045;52.988;6.536;2023-12-20T06:42:26;6.90;75.80
52034;DHT22;38045;52.988;6.536;2023-12-20T06:44:52;6.90;75.70
52034;DHT22;38045;52.988;6.536;2023-12-20T06:47:18;7.00;75.80
52034;DHT22;38045;52.988;6.536;2023-12-20T06:49:43;7.00;75.60
52034;DHT22;38045;52.988;6.536;2023-12-20T06:52:09;7.00;75.70
52034;DHT22;38045;52.988;6.536;2023-12-20T06:54:35;7.00;75.70
52034;DHT22;38045;52.988;6.536;2023-12-20T06:57:01;7.00;75.30
52034;DHT22;38045;52.988;6.536;2023-12-20T06:59:28;7.00;75.30
52034;DHT22;38045;52.988;6.536;2023-12-20T07:01:54;7.10;75.00
52034;DHT22;38045;52.988;6.536;2023-12-20T07:04:20;7.20;75.10
52034;DHT22;38045;52.988;6.536;2023-12-20T07:06:47;7.20;74.80
52034;DHT22;38045;52.988;6.536;2023-12-20T07:09:13;7.20;74.20
52034;DHT22;38045;52.988;6.536;2023-12-20T07:11:39;7.20;74.00
52034;DHT22;38045;52.988;6.536;2023-12-20T07:14:05;7.20;74.70
52034;DHT22;38045;52.988;6.536;2023-12-20T07:16:31;7.20;74.70
52034;DHT22;38045;52.988;6.536;2023-12-20T07:18:57;7.20;74.60
52034;DHT22;38045;52.988;6.536;2023-12-20T07:21:22;7.20;74.00
52034;DHT22;38045;52.988;6.536;2023-12-20T07:23:48;7.30;74.00
52034;DHT22;38045;52.988;6.536;2023-12-20T07:26:14;7.40;73.80
52034;DHT22;38045;52.988;6.536;2023-12-20T07:28:40;7.30;74.00
52034;DHT22;38045;52.988;6.536;2023-12-20T07:31:06;7.40;73.80
52034;DHT22;38045;52.988;6.536;2023-12-20T07:33:31;7.40;74.10
52034;DHT22;38045;52.988;6.536;2023-12-20T07:35:59;7.30;74.20
52034;DHT22;38045;52.988;6.536;2023-12-20T07:38:24;7.40;74.30
52034;DHT22;38045;52.988;6.536;2023-12-20T07:40:50;7.20;74.30
52034;DHT22;38045;52.988;6.536;2023-12-20T07:43:15;7.20;74.60
52034;DHT22;38045;52.988;6.536;2023-12-20T07:45:41;7.30;74.40
52034;DHT22;38045;52.988;6.536;2023-12-20T07:48:07;7.30;74.50
52034;DHT22;38045;52.988;6.536;2023-12-20T07:50:33;7.20;74.30
52034;DHT22;38045;52.988;6.536;2023-12-20T07:52:58;7.30;74.40
52034;DHT22;38045;52.988;6.536;2023-12-20T07:55:26;7.40;74.50
52034;DHT22;38045;52.988;6.536;2023-12-20T07:57:52;7.40;74.10
52034;DHT22;38045;52.988;6.536;2023-12-20T08:00:17;7.40;74.40
52034;DHT22;38045;52.988;6.536;2023-12-20T08:02:43;7.40;74.10
52034;DHT22;38045;52.988;6.536;2023-12-20T08:05:09;7.40;74.20
52034;DHT22;38045;52.988;6.536;2023-12-20T08:07:35;7.40;74.30
52034;DHT22;38045;52.988;6.536;2023-12-20T08:10:00;7.40;74.30
52034;DHT22;38045;52.988;6.536;2023-12-20T08:12:26;7.40;73.90
52034;DHT22;38045;52.988;6.536;2023-12-20T08:14:53;7.40;74.30
52034;DHT22;38045;52.988;6.536;2023-12-20T08:17:19;7.50;74.00
52034;DHT22;38045;52.988;6.536;2023-12-20T08:19:45;7.50;73.90
52034;DHT22;38045;52.988;6.536;2023-12-20T08:22:11;7.50;73.90
52034;DHT22;38045;52.988;6.536;2023-12-20T08:24:37;7.50;73.90
52034;DHT22;38045;52.988;6.536;2023-12-20T08:27:03;7.50;73.20
52034;DHT22;38045;52.988;6.536;2023-12-20T08:29:29;7.50;73.50
52034;DHT22;38045;52.988;6.536;2023-12-20T08:31:55;7.60;73.60
52034;DHT22;38045;52.988;6.536;2023-12-20T08:34:21;7.60;72.90
52034;DHT22;38045;52.988;6.536;2023-12-20T08:36:47;7.60;72.80
52034;DHT22;38045;52.988;6.536;2023-12-20T08:39:12;7.60;73.20
52034;DHT22;38045;52.988;6.536;2023-12-20T08:41:38;7.50;73.20
52034;DHT22;38045;52.988;6.536;2023-12-20T08:44:04;7.40;73.70
52034;DHT22;38045;52.988;6.536;2023-12-20T08:46:30;7.20;73.90
52034;DHT22;38045;52.988;6.536;2023-12-20T08:48:56;7.10;74.20
52034;DHT22;38045;52.988;6.536;2023-12-20T08:51:21;7.00;74.60
52034;DHT22;38045;52.988;6.536;2023-12-20T08:53:49;7.00;74.70
52034;DHT22;38045;52.988;6.536;2023-12-20T08:56:15;6.90;75.00
52034;DHT22;38045;52.988;6.536;2023-12-20T08:58:41;6.90;75.20
52034;DHT22;38045;52.988;6.536;2023-12-20T09:01:07;6.90;75.70
52034;DHT22;38045;52.988;6.536;2023-12-20T09:03:33;7.00;75.70
52034;DHT22;38045;52.988;6.536;2023-12-20T09:05:58;7.20;75.20
52034;DHT22;38045;52.988;6.536;2023-12-20T09:08:24;7.30;74.90
52034;DHT22;38045;52.988;6.536;2023-12-20T09:10:49;7.40;74.90
52034;DHT22;38045;52.988;6.536;2023-12-20T09:13:15;7.50;74.40
52034;DHT22;38045;52.988;6.536;2023-12-20T09:15:41;7.50;74.20
52034;DHT22;38045;52.988;6.536;2023-12-20T09:18:07;7.60;74.20
52034;DHT22;38045;52.988;6.536;2023-12-20T09:20:33;7.70;73.50
52034;DHT22;38045;52.988;6.536;2023-12-20T09:22:59;7.80;73.40
52034;DHT22;38045;52.988;6.536;2023-12-20T09:25:25;7.80;72.80
52034;DHT22;38045;52.988;6.536;2023-12-20T09:27:52;7.90;72.10
52034;DHT22;38045;52.988;6.536;2023-12-20T09:30:18;8.00;72.90
52034;DHT22;38045;52.988;6.536;2023-12-20T09:32:44;8.10;72.10
52034;DHT22;38045;52.988;6.536;2023-12-20T09:35:11;8.10;72.80
52034;DHT22;38045;52.988;6.536;2023-12-20T09:37:37;7.70;72.30
52034;DHT22;38045;52.988;6.536;2023-12-20T09:40:04;7.30;72.80
52034;DHT22;38045;52.988;6.536;2023-12-20T09:42:39;6.90;73.10
52034;DHT22;38045;52.988;6.536;2023-12-20T09:45:09;6.60;73.10
52034;DHT22;38045;52.988;6.536;2023-12-20T09:47:37;6.30;73.70
52034;DHT22;38045;52.988;6.536;2023-12-20T09:50:03;6.10;74.20
52034;DHT22;38045;52.988;6.536;2023-12-20T09:52:29;6.00;74.70
52034;DHT22;38045;52.988;6.536;2023-12-20T09:54:55;5.90;75.10
52034;DHT22;38045;52.988;6.536;2023-12-20T09:57:22;5.90;75.20
52034;DHT22;38045;52.988;6.536;2023-12-20T09:59:48;5.80;75.00
52034;DHT22;38045;52.988;6.536;2023-12-20T10:02:14;5.80;75.10
52034;DHT22;38045;52.988;6.536;2023-12-20T10:04:48;5.80;75.10
52034;DHT22;38045;52.988;6.536;2023-12-20T10:07:14;5.70;74.80
52034;DHT22;38045;52.988;6.536;2023-12-20T10:09:41;5.70;74.60
52034;DHT22;38045;52.988;6.536;2023-12-20T10:12:07;5.60;73.90
52034;DHT22;38045;52.988;6.536;2023-12-20T10:14:33;5.60;74.30
52034;DHT22;38045;52.988;6.536;2023-12-20T10:17:05;5.60;74.50
52034;DHT22;38045;52.988;6.536;2023-12-20T10:19:32;5.60;74.70
52034;DHT22;38045;52.988;6.536;2023-12-20T10:21:59;5.60;74.80
52034;DHT22;38045;52.988;6.536;2023-12-20T10:24:25;5.60;75.00
52034;DHT22;38045;52.988;6.536;2023-12-20T10:27:07;5.60;75.00
52034;DHT22;38045;52.988;6.536;2023-12-20T10:29:37;5.60;75.30
52034;DHT22;38045;52.988;6.536;2023-12-20T10:32:22;5.60;75.40
52034;DHT22;38045;52.988;6.536;2023-12-20T10:34:48;5.60;75.50
52034;DHT22;38045;52.988;6.536;2023-12-20T10:37:14;5.70;75.30
52034;DHT22;38045;52.988;6.536;2023-12-20T10:39:40;5.70;75.20
52034;DHT22;38045;52.988;6.536;2023-12-20T10:42:09;5.70;75.30
52034;DHT22;38045;52.988;6.536;2023-12-20T10:44:36;5.70;75.10
52034;DHT22;38045;52.988;6.536;2023-12-20T10:47:03;5.80;75.00
52034;DHT22;38045;52.988;6.536;2023-12-20T10:49:30;5.90;75.10
52034;DHT22;38045;52.988;6.536;2023-12-20T10:51:57;6.10;75.20
52034;DHT22;38045;52.988;6.536;2023-12-20T10:54:25;6.30;74.60
52034;DHT22;38045;52.988;6.536;2023-12-20T10:56:52;6.30;73.60
52034;DHT22;38045;52.988;6.536;2023-12-20T10:59:20;6.20;73.80
52034;DHT22;38045;52.988;6.536;2023-12-20T11:01:48;6.20;73.50
52034;DHT22;38045;52.988;6.536;2023-12-20T11:04:19;6.20;74.30
52034;DHT22;38045;52.988;6.536;2023-12-20T11:06:53;6.20;73.80
52034;DHT22;38045;52.988;6.536;2023-12-20T11:09:42;6.20;73.70
52034;DHT22;38045;52.988;6.536;2023-12-20T11:12:15;6.20;73.80
52034;DHT22;38045;52.988;6.536;2023-12-20T11:14:43;6.20;73.60
52034;DHT22;38045;52.988;6.536;2023-12-20T11:17:12;6.20;73.60
52034;DHT22;38045;52.988;6.536;2023-12-20T11:22:29;6.30;73.90
52034;DHT22;38045;52.988;6.536;2023-12-20T11:25:05;6.30;73.60
52034;DHT22;38045;52.988;6.536;2023-12-20T11:27:32;6.30;73.60
52034;DHT22;38045;52.988;6.536;2023-12-20T11:29:58;6.40;73.80
52034;DHT22;38045;52.988;6.536;2023-12-20T11:37:37;6.50;73.70
52034;DHT22;38045;52.988;6.536;2023-12-20T11:40:08;6.50;73.80
52034;DHT22;38045;52.988;6.536;2023-12-20T11:42:40;6.60;73.70
52034;DHT22;38045;52.988;6.536;2023-12-20T11:45:18;6.60;73.40
52034;DHT22;38045;52.988;6.536;2023-12-20T11:47:49;6.70;73.80
52034;DHT22;38045;52.988;6.536;2023-12-20T11:50:22;6.60;73.50
52034;DHT22;38045;52.988;6.536;2023-12-20T11:52:49;6.60;73.80
52034;DHT22;38045;52.988;6.536;2023-12-20T11:55:15;6.60;73.70
52034;DHT22;38045;52.988;6.536;2023-12-20T11:57:42;6.60;73.80
52034;DHT22;38045;52.988;6.536;2023-12-20T12:00:08;6.70;73.80
52034;DHT22;38045;52.988;6.536;2023-12-20T12:02:34;6.70;73.80
52034;DHT22;38045;52.988;6.536;2023-12-20T12:05:00;6.70;73.90
52034;DHT22;38045;52.988;6.536;2023-12-20T12:07:25;6.70;74.00
52034;DHT22;38045;52.988;6.536;2023-12-20T12:09:51;6.70;74.00
52034;DHT22;38045;52.988;6.536;2023-12-20T12:12:17;6.70;74.00
52034;DHT22;38045;52.988;6.536;2023-12-20T12:14:45;6.70;74.10
52034;DHT22;38045;52.988;6.536;2023-12-20T12:17:14;6.70;74.10
52034;DHT22;38045;52.988;6.536;2023-12-20T12:19:40;6.70;74.20
52034;DHT22;38045;52.988;6.536;2023-12-20T12:22:07;6.70;74.30
52034;DHT22;38045;52.988;6.536;2023-12-20T12:24:34;6.70;74.40
52034;DHT22;38045;52.988;6.536;2023-12-20T12:26:59;6.70;74.40
52034;DHT22;38045;52.988;6.536;2023-12-20T12:29:25;6.70;74.60
52034;DHT22;38045;52.988;6.536;2023-12-20T12:31:51;6.70;74.70
52034;DHT22;38045;52.988;6.536;2023-12-20T12:34:17;6.70;74.70
52034;DHT22;38045;52.988;6.536;2023-12-20T12:36:43;6.70;74.70
52034;DHT22;38045;52.988;6.536;2023-12-20T12:39:12;6.70;74.70
52034;DHT22;38045;52.988;6.536;2023-12-20T12:41:41;6.60;75.20
52034;DHT22;38045;52.988;6.536;2023-12-20T12:44:06;6.60;75.10
52034;DHT22;38045;52.988;6.536;2023-12-20T12:46:32;6.60;75.60
52034;DHT22;38045;52.988;6.536;2023-12-20T12:48:58;6.60;75.50
52034;DHT22;38045;52.988;6.536;2023-12-20T12:51:24;6.60;75.60
52034;DHT22;38045;52.988;6.536;2023-12-20T12:53:49;6.60;75.50
52034;DHT22;38045;52.988;6.536;2023-12-20T12:56:15;6.60;75.50
52034;DHT22;38045;52.988;6.536;2023-12-20T12:58:41;6.50;75.70
52034;DHT22;38045;52.988;6.536;2023-12-20T13:01:07;6.60;75.70
52034;DHT22;38045;52.988;6.536;2023-12-20T13:03:32;6.50;75.80
52034;DHT22;38045;52.988;6.536;2023-12-20T13:05:59;6.50;75.80
52034;DHT22;38045;52.988;6.536;2023-12-20T13:08:25;6.60;75.80
52034;DHT22;38045;52.988;6.536;2023-12-20T13:10:51;6.50;75.90
52034;DHT22;38045;52.988;6.536;2023-12-20T13:13:16;6.50;76.10
52034;DHT22;38045;52.988;6.536;2023-12-20T13:15:42;6.50;76.00
52034;DHT22;38045;52.988;6.536;2023-12-20T13:18:08;6.40;76.00
52034;DHT22;38045;52.988;6.536;2023-12-20T13:20:33;6.40;76.10
52034;DHT22;38045;52.988;6.536;2023-12-20T13:22:59;6.30;76.00
52034;DHT22;38045;52.988;6.536;2023-12-20T13:25:25;6.20;76.00
52034;DHT22;38045;52.988;6.536;2023-12-20T13:27:50;6.20;76.10
52034;DHT22;38045;52.988;6.536;2023-12-20T13:30:16;6.10;76.00
52034;DHT22;38045;52.988;6.536;2023-12-20T13:32:42;6.00;75.70
52034;DHT22;38045;52.988;6.536;2023-12-20T13:35:09;5.90;76.00
52034;DHT22;38045;52.988;6.536;2023-12-20T13:37:35;5.90;76.20
52034;DHT22;38045;52.988;6.536;2023-12-20T13:40:00;5.80;76.20
52034;DHT22;38045;52.988;6.536;2023-12-20T13:42:27;5.80;76.30
52034;DHT22;38045;52.988;6.536;2023-12-20T13:44:53;5.70;76.50
52034;DHT22;38045;52.988;6.536;2023-12-20T13:47:19;5.70;76.50
52034;DHT22;38045;52.988;6.536;2023-12-20T13:49:45;5.70;76.60
52034;DHT22;38045;52.988;6.536;2023-12-20T13:52:11;5.70;76.90
52034;DHT22;38045;52.988;6.536;2023-12-20T13:54:37;5.60;77.10
52034;DHT22;38045;52.988;6.536;2023-12-20T13:57:03;5.70;77.20
52034;DHT22;38045;52.988;6.536;2023-12-20T13:59:29;5.60;77.30
52034;DHT22;38045;52.988;6.536;2023-12-20T14:01:54;5.60;77.40
52034;DHT22;38045;52.988;6.536;2023-12-20T14:04:20;5.60;77.70
52034;DHT22;38045;52.988;6.536;2023-12-20T14:06:47;5.60;77.30
52034;DHT22;38045;52.988;6.536;2023-12-20T14:09:12;5.60;77.60
52034;DHT22;38045;52.988;6.536;2023-12-20T14:11:38;5.60;77.60
52034;DHT22;38045;52.988;6.536;2023-12-20T14:14:07;5.60;77.60
52034;DHT22;38045;52.988;6.536;2023-12-20T14:16:33;5.60;77.70
52034;DHT22;38045;52.988;6.536;2023-12-20T14:18:59;5.60;77.60
52034;DHT22;38045;52.988;6.536;2023-12-20T14:21:25;5.60;77.50
52034;DHT22;38045;52.988;6.536;2023-12-20T14:23:50;5.60;77.50
52034;DHT22;38045;52.988;6.536;2023-12-20T14:26:17;5.60;77.50
52034;DHT22;38045;52.988;6.536;2023-12-20T14:28:43;5.60;77.80
52034;DHT22;38045;52.988;6.536;2023-12-20T14:31:09;5.60;77.90
52034;DHT22;38045;52.988;6.536;2023-12-20T14:33:35;5.60;78.00
52034;DHT22;38045;52.988;6.536;2023-12-20T14:36:03;5.60;78.20
52034;DHT22;38045;52.988;6.536;2023-12-20T14:38:33;5.60;78.30
52034;DHT22;38045;52.988;6.536;2023-12-20T14:40:59;5.60;78.20
52034;DHT22;38045;52.988;6.536;2023-12-20T14:43:26;5.60;78.10
52034;DHT22;38045;52.988;6.536;2023-12-20T14:45:52;5.60;78.10
52034;DHT22;38045;52.988;6.536;2023-12-20T14:48:18;5.60;78.70
52034;DHT22;38045;52.988;6.536;2023-12-20T14:50:44;5.60;78.50
52034;DHT22;38045;52.988;6.536;2023-12-20T14:53:10;5.60;78.40
52034;DHT22;38045;52.988;6.536;2023-12-20T14:55:35;5.60;78.50
52034;DHT22;38045;52.988;6.536;2023-12-20T14:58:01;5.60;78.50
52034;DHT22;38045;52.988;6.536;2023-12-20T15:00:26;5.60;78.50
52034;DHT22;38045;52.988;6.536;2023-12-20T15:02:52;5.60;78.70
52034;DHT22;38045;52.988;6.536;2023-12-20T15:05:21;5.60;78.70
52034;DHT22;38045;52.988;6.536;2023-12-20T15:07:46;5.60;78.70
52034;DHT22;38045;52.988;6.536;2023-12-20T15:10:13;5.60;78.60
52034;DHT22;38045;52.988;6.536;2023-12-20T15:12:39;5.60;78.60
52034;DHT22;38045;52.988;6.536;2023-12-20T15:15:06;5.60;78.70
52034;DHT22;38045;52.988;6.536;2023-12-20T15:17:31;5.60;78.70
52034;DHT22;38045;52.988;6.536;2023-12-20T15:19:57;5.60;78.90
52034;DHT22;38045;52.988;6.536;2023-12-20T15:22:23;5.60;79.10
52034;DHT22;38045;52.988;6.536;2023-12-20T15:24:49;5.60;79.00
52034;DHT22;38045;52.988;6.536;2023-12-20T15:27:16;5.60;79.20
52034;DHT22;38045;52.988;6.536;2023-12-20T15:29:43;5.60;79.20
52034;DHT22;38045;52.988;6.536;2023-12-20T15:32:09;5.60;79.30
52034;DHT22;38045;52.988;6.536;2023-12-20T15:34:34;5.70;79.10
52034;DHT22;38045;52.988;6.536;2023-12-20T15:37:00;5.70;79.50
52034;DHT22;38045;52.988;6.536;2023-12-20T15:39:25;5.70;79.30
52034;DHT22;38045;52.988;6.536;2023-12-20T15:41:51;5.70;79.40
52034;DHT22;38045;52.988;6.536;2023-12-20T15:44:17;5.80;79.40
52034;DHT22;38045;52.988;6.536;2023-12-20T15:46:43;5.80;79.60